createdAt,value
2018-04-11T00:00:09.812Z,1004.2
2018-04-11T00:01:11.386Z,1004.2
2018-04-11T00:02:12.965Z,1004.2
2018-04-11T00:03:14.574Z,1004.3
2018-04-11T00:04:16.172Z,1004.3
2018-04-11T00:05:17.742Z,1004.3
2018-04-11T00:06:19.435Z,1004.3
2018-04-11T00:07:21.040Z,1004.3
2018-04-11T00:08:22.636Z,1004.4
2018-04-11T00:09:24.216Z,1004.3
2018-04-11T00:10:25.812Z,1004.4
2018-04-11T00:11:27.375Z,1004.4
2018-04-11T00:12:28.981Z,1004.4
2018-04-11T00:13:30.577Z,1004.4
2018-04-11T00:14:32.179Z,1004.4
2018-04-11T00:15:33.857Z,1004.4
2018-04-11T00:16:35.502Z,1004.4
2018-04-11T00:17:37.075Z,1004.4
2018-04-11T00:18:38.656Z,1004.4
2018-04-11T00:19:40.247Z,1004.4
2018-04-11T00:20:41.828Z,1004.4
2018-04-11T00:21:43.429Z,1004.5
2018-04-11T00:22:45.020Z,1004.5
2018-04-11T00:23:46.618Z,1004.5
2018-04-11T00:24:48.210Z,1004.5
2018-04-11T00:25:49.786Z,1004.5
2018-04-11T00:26:51.360Z,1004.5
2018-04-11T00:27:52.943Z,1004.5
2018-04-11T00:28:54.521Z,1004.6
2018-04-11T00:29:56.139Z,1004.5
2018-04-11T00:30:57.727Z,1004.6
2018-04-11T00:31:59.325Z,1004.6
2018-04-11T00:33:00.907Z,1004.6
2018-04-11T00:34:02.468Z,1004.6
2018-04-11T00:35:04.585Z,1004.6
2018-04-11T00:36:05.905Z,1004.7
2018-04-11T00:37:07.533Z,1004.6
2018-04-11T00:38:09.110Z,1004.7
2018-04-11T00:39:10.705Z,1004.7
2018-04-11T00:40:12.324Z,1004.7
2018-04-11T00:41:13.930Z,1004.7
2018-04-11T00:42:15.642Z,1004.7
2018-04-11T00:43:17.254Z,1004.7
2018-04-11T00:44:18.843Z,1004.7
2018-04-11T00:45:20.440Z,1004.7
2018-04-11T00:46:22.070Z,1004.7
2018-04-11T00:47:23.651Z,1004.7
2018-04-11T00:48:25.258Z,1004.7
2018-04-11T00:49:26.871Z,1004.7
2018-04-11T00:50:28.448Z,1004.7
2018-04-11T00:51:30.050Z,1004.7
2018-04-11T00:52:31.648Z,1004.7
2018-04-11T00:53:33.306Z,1004.7
2018-04-11T00:54:34.905Z,1004.7
2018-04-11T00:55:36.483Z,1004.7
2018-04-11T00:56:38.072Z,1004.8
2018-04-11T00:57:39.662Z,1004.8
2018-04-11T00:58:41.246Z,1004.8
2018-04-11T00:59:42.883Z,1004.8
2018-04-11T01:00:44.481Z,1004.8
2018-04-11T01:01:46.072Z,1004.8
2018-04-11T01:02:47.663Z,1004.8
2018-04-11T01:03:49.249Z,1004.8
2018-04-11T01:04:50.831Z,1004.8
2018-04-11T01:05:52.419Z,1004.9
2018-04-11T01:06:54.037Z,1004.8
2018-04-11T01:07:55.621Z,1004.9
2018-04-11T01:08:57.226Z,1004.9
2018-04-11T01:09:58.793Z,1004.9
2018-04-11T01:11:00.385Z,1005.0
2018-04-11T01:12:01.958Z,1005.0
2018-04-11T01:13:03.560Z,1005.0
2018-04-11T01:14:05.133Z,1005.0
2018-04-11T01:15:06.782Z,1005.1
2018-04-11T01:16:08.359Z,1005.0
2018-04-11T01:17:09.944Z,1005.0
2018-04-11T01:18:11.613Z,1005.0
2018-04-11T01:19:13.238Z,1005.1
2018-04-11T01:20:14.824Z,1005.1
2018-04-11T01:21:16.388Z,1005.1
2018-04-11T01:22:17.984Z,1005.1
2018-04-11T01:23:19.563Z,1005.1
2018-04-11T01:24:21.137Z,1005.1
2018-04-11T01:25:22.715Z,1005.1
2018-04-11T01:26:24.296Z,1005.1
2018-04-11T01:27:25.883Z,1005.1
2018-04-11T01:28:27.479Z,1005.1
2018-04-11T01:29:29.064Z,1005.1
2018-04-11T01:30:30.660Z,1005.1
2018-04-11T01:31:32.238Z,1005.2
2018-04-11T01:32:33.841Z,1005.2
2018-04-11T01:33:35.436Z,1005.2
2018-04-11T01:34:36.994Z,1005.2
2018-04-11T01:35:38.557Z,1005.1
2018-04-11T01:36:40.194Z,1005.1
2018-04-11T01:37:41.783Z,1005.1
2018-04-11T01:38:43.376Z,1005.1
2018-04-11T01:39:44.952Z,1005.1
2018-04-11T01:40:46.534Z,1005.1
2018-04-11T01:41:48.112Z,1005.2
2018-04-11T01:42:49.682Z,1005.2
2018-04-11T01:43:51.246Z,1005.2
2018-04-11T01:44:52.817Z,1005.2
2018-04-11T01:45:54.367Z,1005.2
2018-04-11T01:46:55.934Z,1005.2
2018-04-11T01:47:57.519Z,1005.2
2018-04-11T01:48:59.119Z,1005.2
2018-04-11T01:50:00.709Z,1005.3
2018-04-11T01:51:02.276Z,1005.2
2018-04-11T01:52:03.847Z,1005.3
2018-04-11T01:53:05.441Z,1005.3
2018-04-11T01:54:07.013Z,1005.3
2018-04-11T01:55:08.602Z,1005.3
2018-04-11T01:56:10.196Z,1005.3
2018-04-11T01:57:11.773Z,1005.3
2018-04-11T01:58:13.402Z,1005.4
2018-04-11T01:59:14.978Z,1005.4
2018-04-11T02:00:16.549Z,1005.4
2018-04-11T02:01:18.141Z,1005.3
2018-04-11T02:02:19.738Z,1005.4
2018-04-11T02:03:21.315Z,1005.4
2018-04-11T02:04:22.887Z,1005.4
2018-04-11T02:05:24.454Z,1005.4
2018-04-11T02:06:26.028Z,1005.4
2018-04-11T02:07:27.610Z,1005.4
2018-04-11T02:08:29.185Z,1005.5
2018-04-11T02:09:30.773Z,1005.6
2018-04-11T02:10:32.351Z,1005.5
2018-04-11T02:11:33.913Z,1005.6
2018-04-11T02:12:35.480Z,1005.6
2018-04-11T02:13:37.051Z,1005.6
2018-04-11T02:14:38.612Z,1005.6
2018-04-11T02:15:40.190Z,1005.5
2018-04-11T02:16:41.822Z,1005.6
2018-04-11T02:17:43.400Z,1005.5
2018-04-11T02:18:44.992Z,1005.5
2018-04-11T02:19:46.595Z,1005.5
2018-04-11T02:20:48.174Z,1005.5
2018-04-11T02:21:49.770Z,1005.5
2018-04-11T02:22:51.347Z,1005.5
2018-04-11T02:23:52.953Z,1005.5
2018-04-11T02:24:54.547Z,1005.5
2018-04-11T02:25:56.128Z,1005.5
2018-04-11T02:26:57.718Z,1005.6
2018-04-11T02:27:59.288Z,1005.6
2018-04-11T02:29:00.870Z,1005.7
2018-04-11T02:30:02.472Z,1005.7
2018-04-11T02:31:04.064Z,1005.7
2018-04-11T02:32:05.645Z,1005.7
2018-04-11T02:33:07.233Z,1005.7
2018-04-11T02:34:08.818Z,1005.7
2018-04-11T02:35:11.085Z,1005.7
2018-04-11T02:36:12.664Z,1005.7
2018-04-11T02:37:14.234Z,1005.7
2018-04-11T02:38:15.819Z,1005.6
2018-04-11T02:39:17.388Z,1005.7
2018-04-11T02:40:18.986Z,1005.7
2018-04-11T02:41:20.591Z,1005.7
2018-04-11T02:42:22.164Z,1005.7
2018-04-11T02:43:23.762Z,1005.8
2018-04-11T02:44:25.346Z,1005.7
2018-04-11T02:45:26.918Z,1005.8
2018-04-11T02:46:28.486Z,1005.8
2018-04-11T02:47:30.066Z,1005.8
2018-04-11T02:48:31.669Z,1005.8
2018-04-11T02:49:33.270Z,1005.8
2018-04-11T02:50:34.851Z,1005.8
2018-04-11T02:51:36.522Z,1005.9
2018-04-11T02:52:38.125Z,1005.9
2018-04-11T02:53:39.709Z,1005.9
2018-04-11T02:54:41.302Z,1005.9
2018-04-11T02:55:42.890Z,1005.9
2018-04-11T02:56:44.498Z,1005.9
2018-04-11T02:57:46.055Z,1005.9
2018-04-11T02:58:47.632Z,1005.9
2018-04-11T02:59:49.210Z,1005.9
2018-04-11T03:00:50.790Z,1005.9
2018-04-11T03:01:52.413Z,1005.9
2018-04-11T03:02:54.028Z,1005.9
2018-04-11T03:03:55.616Z,1005.9
2018-04-11T03:04:57.207Z,1005.9
2018-04-11T03:05:58.851Z,1006.0
2018-04-11T03:07:00.451Z,1006.0
2018-04-11T03:08:02.056Z,1006.1
2018-04-11T03:09:03.653Z,1006.1
2018-04-11T03:10:05.224Z,1006.1
2018-04-11T03:11:06.833Z,1006.1
2018-04-11T03:12:08.438Z,1006.1
2018-04-11T03:13:10.041Z,1006.1
2018-04-11T03:14:11.613Z,1006.1
2018-04-11T03:15:13.228Z,1006.1
2018-04-11T03:16:14.808Z,1006.1
2018-04-11T03:17:16.404Z,1006.2
2018-04-11T03:18:17.976Z,1006.2
2018-04-11T03:19:19.550Z,1006.2
2018-04-11T03:20:21.131Z,1006.2
2018-04-11T03:21:22.731Z,1006.2
2018-04-11T03:22:24.383Z,1006.2
2018-04-11T03:23:25.967Z,1006.2
2018-04-11T03:24:27.559Z,1006.2
2018-04-11T03:25:29.162Z,1006.3
2018-04-11T03:26:30.732Z,1006.2
2018-04-11T03:27:32.326Z,1006.3
2018-04-11T03:28:33.928Z,1006.3
2018-04-11T03:29:35.533Z,1006.3
2018-04-11T03:30:37.142Z,1006.2
2018-04-11T03:31:38.761Z,1006.3
2018-04-11T03:32:40.403Z,1006.3
2018-04-11T03:33:41.970Z,1006.2
2018-04-11T03:34:43.572Z,1006.2
2018-04-11T03:35:45.144Z,1006.2
2018-04-11T03:36:46.701Z,1006.2
2018-04-11T03:37:48.302Z,1006.3
2018-04-11T03:38:49.880Z,1006.3
2018-04-11T03:39:51.497Z,1006.3
2018-04-11T03:40:53.069Z,1006.3
2018-04-11T03:41:54.699Z,1006.4
2018-04-11T03:42:56.279Z,1006.4
2018-04-11T03:43:57.865Z,1006.4
2018-04-11T03:44:59.466Z,1006.4
2018-04-11T03:46:01.037Z,1006.4
2018-04-11T03:47:02.610Z,1006.4
2018-04-11T03:48:04.239Z,1006.4
2018-04-11T03:49:05.818Z,1006.5
2018-04-11T03:50:07.396Z,1006.5
2018-04-11T03:51:08.976Z,1006.5
2018-04-11T03:52:10.549Z,1006.5
2018-04-11T03:53:12.133Z,1006.5
2018-04-11T03:54:13.771Z,1006.5
2018-04-11T03:55:15.351Z,1006.5
2018-04-11T03:56:16.950Z,1006.5
2018-04-11T03:57:18.538Z,1006.5
2018-04-11T03:58:20.136Z,1006.5
2018-04-11T03:59:21.713Z,1006.5
2018-04-11T04:00:23.314Z,1006.6
2018-04-11T04:01:24.914Z,1006.6
2018-04-11T04:02:26.489Z,1006.6
2018-04-11T04:03:28.103Z,1006.6
2018-04-11T04:04:29.701Z,1006.6
2018-04-11T04:05:31.268Z,1006.6
2018-04-11T04:06:32.885Z,1006.6
2018-04-11T04:07:34.551Z,1006.6
2018-04-11T04:08:36.098Z,1006.6
2018-04-11T04:09:37.705Z,1006.6
2018-04-11T04:10:39.295Z,1006.6
2018-04-11T04:11:40.875Z,1006.7
2018-04-11T04:12:42.444Z,1006.7
2018-04-11T04:13:44.150Z,1006.7
2018-04-11T04:14:45.674Z,1006.7
2018-04-11T04:15:47.265Z,1006.6
2018-04-11T04:16:48.856Z,1006.7
2018-04-11T04:17:50.449Z,1006.7
2018-04-11T04:18:52.036Z,1006.7
2018-04-11T04:19:53.607Z,1006.7
2018-04-11T04:20:55.222Z,1006.7
2018-04-11T04:21:56.862Z,1006.7
2018-04-11T04:22:58.499Z,1006.6
2018-04-11T04:24:00.074Z,1006.6
2018-04-11T04:25:01.681Z,1006.6
2018-04-11T04:26:03.262Z,1006.6
2018-04-11T04:27:04.849Z,1006.6
2018-04-11T04:28:06.427Z,1006.6
2018-04-11T04:29:08.010Z,1006.6
2018-04-11T04:30:09.623Z,1006.7
2018-04-11T04:31:11.198Z,1006.6
2018-04-11T04:32:12.771Z,1006.6
2018-04-11T04:33:14.353Z,1006.7
2018-04-11T04:34:15.971Z,1006.7
2018-04-11T04:35:17.552Z,1006.6
2018-04-11T04:36:19.136Z,1006.7
2018-04-11T04:37:20.747Z,1006.7
2018-04-11T04:38:22.347Z,1006.7
2018-04-11T04:39:23.966Z,1006.7
2018-04-11T04:40:25.542Z,1006.7
2018-04-11T04:41:27.134Z,1006.8
2018-04-11T04:42:28.716Z,1006.8
2018-04-11T04:43:30.328Z,1006.8
2018-04-11T04:44:31.901Z,1006.9
2018-04-11T04:45:33.491Z,1006.8
2018-04-11T04:46:35.100Z,1006.9
2018-04-11T04:47:36.709Z,1006.9
2018-04-11T04:48:38.272Z,1006.9
2018-04-11T04:49:39.851Z,1006.9
2018-04-11T04:50:41.418Z,1006.9
2018-04-11T04:51:42.977Z,1006.9
2018-04-11T04:52:44.569Z,1006.9
2018-04-11T04:53:46.197Z,1006.9
2018-04-11T04:54:47.781Z,1006.9
2018-04-11T04:55:49.375Z,1007.0
2018-04-11T04:56:50.969Z,1007.0
2018-04-11T04:57:52.570Z,1007.0
2018-04-11T04:58:54.223Z,1007.0
2018-04-11T04:59:55.834Z,1007.0
2018-04-11T05:00:57.454Z,1007.1
2018-04-11T05:01:59.051Z,1007.0
2018-04-11T05:03:00.654Z,1007.0
2018-04-11T05:04:02.300Z,1007.1
2018-04-11T05:05:03.890Z,1007.1
2018-04-11T05:06:05.498Z,1007.1
2018-04-11T05:07:07.146Z,1007.1
2018-04-11T05:08:08.724Z,1007.1
2018-04-11T05:09:10.352Z,1007.1
2018-04-11T05:10:11.944Z,1007.1
2018-04-11T05:11:13.620Z,1007.2
2018-04-11T05:12:15.304Z,1007.2
2018-04-11T05:13:16.880Z,1007.2
2018-04-11T05:14:18.473Z,1007.2
2018-04-11T05:15:20.089Z,1007.2
2018-04-11T05:16:21.695Z,1007.2
2018-04-11T05:17:23.327Z,1007.2
2018-04-11T05:18:24.933Z,1007.2
2018-04-11T05:19:26.535Z,1007.3
2018-04-11T05:20:28.153Z,1007.3
2018-04-11T05:21:29.771Z,1007.2
2018-04-11T05:22:31.358Z,1007.4
2018-04-11T05:23:32.951Z,1007.3
2018-04-11T05:24:34.537Z,1007.3
2018-04-11T05:25:36.128Z,1007.4
2018-04-11T05:26:37.708Z,1007.4
2018-04-11T05:27:39.288Z,1007.4
2018-04-11T05:28:40.857Z,1007.4
2018-04-11T05:29:42.465Z,1007.4
2018-04-11T05:30:44.046Z,1007.4
2018-04-11T05:31:45.638Z,1007.4
2018-04-11T05:32:47.343Z,1007.4
2018-04-11T05:33:48.870Z,1007.4
2018-04-11T05:34:50.486Z,1007.5
2018-04-11T05:35:52.073Z,1007.5
2018-04-11T05:36:53.678Z,1007.5
2018-04-11T05:37:55.258Z,1007.5
2018-04-11T05:38:56.857Z,1007.5
2018-04-11T05:39:58.438Z,1007.5
2018-04-11T05:41:00.030Z,1007.5
2018-04-11T05:42:01.623Z,1007.5
2018-04-11T05:43:03.221Z,1007.5
2018-04-11T05:44:04.801Z,1007.5
2018-04-11T05:45:06.428Z,1007.5
2018-04-11T05:46:08.497Z,1007.6
2018-04-11T05:47:09.911Z,1007.6
2018-04-11T05:48:11.479Z,1007.6
2018-04-11T05:49:13.040Z,1007.6
2018-04-11T05:50:14.666Z,1007.7
2018-04-11T05:51:16.213Z,1007.7
2018-04-11T05:52:17.805Z,1007.7
2018-04-11T05:53:19.364Z,1007.7
2018-04-11T05:54:20.917Z,1007.8
2018-04-11T05:55:22.490Z,1007.7
2018-04-11T05:56:24.043Z,1007.7
2018-04-11T05:57:25.631Z,1007.8
2018-04-11T05:58:27.180Z,1007.8
2018-04-11T05:59:28.796Z,1007.8
2018-04-11T06:00:30.398Z,1007.8
2018-04-11T06:01:31.977Z,1007.8
2018-04-11T06:02:33.529Z,1007.8
2018-04-11T06:03:35.143Z,1007.8
2018-04-11T06:04:36.707Z,1007.8
2018-04-11T06:05:38.297Z,1007.9
2018-04-11T06:06:39.937Z,1007.9
2018-04-11T06:07:41.510Z,1007.9
2018-04-11T06:08:43.106Z,1007.9
2018-04-11T06:09:44.666Z,1008.0
2018-04-11T06:10:46.233Z,1008.0
2018-04-11T06:11:47.788Z,1008.0
2018-04-11T06:12:49.332Z,1008.0
2018-04-11T06:13:50.885Z,1008.0
2018-04-11T06:14:52.461Z,1008.0
2018-04-11T06:15:54.050Z,1008.0
2018-04-11T06:16:55.657Z,1008.0
2018-04-11T06:17:57.209Z,1008.0
2018-04-11T06:18:58.781Z,1008.0
2018-04-11T06:20:00.391Z,1008.1
2018-04-11T06:21:01.957Z,1008.1
2018-04-11T06:22:03.521Z,1008.1
2018-04-11T06:23:05.075Z,1008.1
2018-04-11T06:24:06.654Z,1008.1
2018-04-11T06:25:08.215Z,1008.1
2018-04-11T06:26:09.783Z,1008.1
2018-04-11T06:27:11.337Z,1008.1
2018-04-11T06:28:12.996Z,1008.1
2018-04-11T06:29:14.502Z,1008.1
2018-04-11T06:30:16.078Z,1008.1
2018-04-11T06:31:17.637Z,1008.2
2018-04-11T06:32:19.201Z,1008.2
2018-04-11T06:33:20.781Z,1008.2
2018-04-11T06:34:22.355Z,1008.2
2018-04-11T06:35:23.925Z,1008.2
2018-04-11T06:36:25.478Z,1008.2
2018-04-11T06:37:27.059Z,1008.2
2018-04-11T06:38:28.741Z,1008.3
2018-04-11T06:39:30.307Z,1008.3
2018-04-11T06:40:31.879Z,1008.3
2018-04-11T06:41:33.467Z,1008.4
2018-04-11T06:42:35.037Z,1008.4
2018-04-11T06:43:36.612Z,1008.4
2018-04-11T06:44:38.175Z,1008.4
2018-04-11T06:45:39.752Z,1008.4
2018-04-11T06:46:41.321Z,1008.5
2018-04-11T06:47:42.876Z,1008.5
2018-04-11T06:48:44.450Z,1008.5
2018-04-11T06:49:46.023Z,1008.5
2018-04-11T06:50:47.588Z,1008.5
2018-04-11T06:51:49.148Z,1008.5
2018-04-11T06:52:50.743Z,1008.5
2018-04-11T06:53:52.302Z,1008.5
2018-04-11T06:54:53.889Z,1008.6
2018-04-11T06:55:55.475Z,1008.6
2018-04-11T06:56:57.060Z,1008.6
2018-04-11T06:57:58.613Z,1008.6
2018-04-11T06:59:00.168Z,1008.7
2018-04-11T07:00:01.738Z,1008.6
2018-04-11T07:01:03.285Z,1008.6
2018-04-11T07:02:04.855Z,1008.6
2018-04-11T07:03:06.450Z,1008.6
2018-04-11T07:04:08.079Z,1008.6
2018-04-11T07:05:09.626Z,1008.7
2018-04-11T07:06:11.204Z,1008.7
2018-04-11T07:07:12.895Z,1008.7
2018-04-11T07:08:14.465Z,1008.7
2018-04-11T07:09:16.036Z,1008.7
2018-04-11T07:10:17.611Z,1008.8
2018-04-11T07:11:19.167Z,1008.8
2018-04-11T07:12:20.724Z,1008.8
2018-04-11T07:13:22.292Z,1008.9
2018-04-11T07:14:23.851Z,1008.9
2018-04-11T07:15:25.436Z,1008.9
2018-04-11T07:16:26.994Z,1008.9
2018-04-11T07:17:28.578Z,1008.9
2018-04-11T07:18:30.149Z,1008.8
2018-04-11T07:19:31.731Z,1008.9
2018-04-11T07:20:33.303Z,1008.9
2018-04-11T07:21:34.881Z,1008.8
2018-04-11T07:22:36.453Z,1008.8
2018-04-11T07:23:38.030Z,1008.8
2018-04-11T07:24:39.613Z,1008.9
2018-04-11T07:25:41.226Z,1008.9
2018-04-11T07:26:42.771Z,1008.9
2018-04-11T07:27:44.356Z,1008.9
2018-04-11T07:28:45.940Z,1008.9
2018-04-11T07:29:47.497Z,1008.9
2018-04-11T07:30:49.055Z,1008.9
2018-04-11T07:31:50.629Z,1009.0
2018-04-11T07:32:52.185Z,1009.0
2018-04-11T07:33:53.766Z,1009.0
2018-04-11T07:34:55.456Z,1009.0
2018-04-11T07:35:57.065Z,1009.1
2018-04-11T07:36:58.576Z,1009.1
2018-04-11T07:38:00.227Z,1009.1
2018-04-11T07:39:01.815Z,1009.2
2018-04-11T07:40:03.419Z,1009.1
2018-04-11T07:41:04.986Z,1009.1
2018-04-11T07:42:06.560Z,1009.1
2018-04-11T07:43:08.190Z,1009.2
2018-04-11T07:44:09.786Z,1009.1
2018-04-11T07:45:11.377Z,1009.2
2018-04-11T07:46:12.982Z,1009.2
2018-04-11T07:47:14.526Z,1009.2
2018-04-11T07:48:16.105Z,1009.2
2018-04-11T07:49:17.674Z,1009.2
2018-04-11T07:50:19.257Z,1009.2
2018-04-11T07:51:20.840Z,1009.2
2018-04-11T07:52:22.451Z,1009.3
2018-04-11T07:53:24.040Z,1009.2
2018-04-11T07:54:25.647Z,1009.3
2018-04-11T07:55:27.198Z,1009.3
2018-04-11T07:56:28.784Z,1009.3
2018-04-11T07:57:31.141Z,1009.2
2018-04-11T07:58:32.748Z,1009.3
2018-04-11T07:59:34.340Z,1009.3
2018-04-11T08:00:35.970Z,1009.2
2018-04-11T08:01:37.505Z,1009.3
2018-04-11T08:02:39.146Z,1009.3
2018-04-11T08:03:40.721Z,1009.3
2018-04-11T08:04:42.344Z,1009.3
2018-04-11T08:05:43.915Z,1009.3
2018-04-11T08:06:45.695Z,1009.3
2018-04-11T08:07:47.284Z,1009.4
2018-04-11T08:08:48.890Z,1009.4
2018-04-11T08:09:50.486Z,1009.4
2018-04-11T08:10:52.071Z,1009.4
2018-04-11T08:11:53.653Z,1009.4
2018-04-11T08:12:55.236Z,1009.3
2018-04-11T08:13:56.815Z,1009.4
2018-04-11T08:14:58.400Z,1009.4
2018-04-11T08:16:00.020Z,1009.4
2018-04-11T08:17:01.606Z,1009.3
2018-04-11T08:18:03.208Z,1009.3
2018-04-11T08:19:04.761Z,1009.4
2018-04-11T08:20:06.359Z,1009.4
2018-04-11T08:21:07.934Z,1009.4
2018-04-11T08:22:09.555Z,1009.4
2018-04-11T08:23:11.137Z,1009.4
2018-04-11T08:24:12.741Z,1009.4
2018-04-11T08:25:14.319Z,1009.5
2018-04-11T08:26:15.948Z,1009.5
2018-04-11T08:27:17.518Z,1009.5
2018-04-11T08:28:19.118Z,1009.4
2018-04-11T08:29:20.709Z,1009.5
2018-04-11T08:30:22.310Z,1009.4
2018-04-11T08:31:23.887Z,1009.4
2018-04-11T08:32:25.464Z,1009.4
2018-04-11T08:33:27.100Z,1009.4
2018-04-11T08:34:28.747Z,1009.4
2018-04-11T08:35:30.346Z,1009.4
2018-04-11T08:36:31.950Z,1009.4
2018-04-11T08:37:33.579Z,1009.5
2018-04-11T08:38:35.155Z,1009.4
2018-04-11T08:39:36.784Z,1009.4
2018-04-11T08:40:38.365Z,1009.4
2018-04-11T08:41:39.952Z,1009.4
2018-04-11T08:42:41.519Z,1009.4
2018-04-11T08:43:43.151Z,1009.4
2018-04-11T08:44:44.732Z,1009.4
2018-04-11T08:45:46.352Z,1009.4
2018-04-11T08:46:47.941Z,1009.4
2018-04-11T08:47:49.530Z,1009.4
2018-04-11T08:48:51.136Z,1009.4
2018-04-11T08:49:52.720Z,1009.4
2018-04-11T08:50:54.349Z,1009.4
2018-04-11T08:51:56.018Z,1009.4
2018-04-11T08:52:57.631Z,1009.5
2018-04-11T08:53:59.228Z,1009.4
2018-04-11T08:55:00.889Z,1009.4
2018-04-11T08:56:02.495Z,1009.5
2018-04-11T08:57:04.082Z,1009.4
2018-04-11T08:58:05.810Z,1009.4
2018-04-11T08:59:07.402Z,1009.5
2018-04-11T09:00:09.015Z,1009.5
2018-04-11T09:01:10.595Z,1009.5
2018-04-11T09:02:12.204Z,1009.5
2018-04-11T09:03:13.855Z,1009.6
2018-04-11T09:04:15.462Z,1009.5
2018-04-11T09:05:17.093Z,1009.5
2018-04-11T09:06:18.710Z,1009.6
2018-04-11T09:07:20.301Z,1009.6
2018-04-11T09:08:21.892Z,1009.6
2018-04-11T09:09:23.496Z,1009.6
2018-04-11T09:10:25.086Z,1009.7
2018-04-11T09:11:26.675Z,1009.6
2018-04-11T09:12:28.337Z,1009.6
2018-04-11T09:13:29.910Z,1009.6
2018-04-11T09:14:31.553Z,1009.6
2018-04-11T09:15:33.200Z,1009.6
2018-04-11T09:16:34.820Z,1009.6
2018-04-11T09:17:36.407Z,1009.6
2018-04-11T09:18:37.990Z,1009.6
2018-04-11T09:19:39.583Z,1009.6
2018-04-11T09:20:41.159Z,1009.6
2018-04-11T09:21:42.853Z,1009.6
2018-04-11T09:22:44.498Z,1009.7
2018-04-11T09:23:46.102Z,1009.7
2018-04-11T09:24:47.700Z,1009.7
2018-04-11T09:25:49.286Z,1009.8
2018-04-11T09:26:50.886Z,1009.8
2018-04-11T09:27:52.494Z,1009.8
2018-04-11T09:28:54.076Z,1009.8
2018-04-11T09:29:55.663Z,1009.8
2018-04-11T09:30:57.252Z,1009.8
2018-04-11T09:31:58.897Z,1009.8
2018-04-11T09:33:00.468Z,1009.8
2018-04-11T09:34:02.060Z,1009.8
2018-04-11T09:35:03.754Z,1009.8
2018-04-11T09:36:05.355Z,1009.8
2018-04-11T09:37:06.947Z,1009.9
2018-04-11T09:38:08.594Z,1009.8
2018-04-11T09:39:10.211Z,1009.9
2018-04-11T09:40:11.818Z,1009.9
2018-04-11T09:41:13.392Z,1009.9
2018-04-11T09:42:15.006Z,1009.9
2018-04-11T09:43:16.643Z,1010.0
2018-04-11T09:44:18.242Z,1010.0
2018-04-11T09:45:19.829Z,1010.0
2018-04-11T09:46:21.436Z,1010.0
2018-04-11T09:47:23.043Z,1009.9
2018-04-11T09:48:24.626Z,1009.9
2018-04-11T09:49:26.218Z,1009.8
2018-04-11T09:50:27.815Z,1009.8
2018-04-11T09:51:29.408Z,1009.8
2018-04-11T09:52:31.017Z,1009.8
2018-04-11T09:53:32.615Z,1009.9
2018-04-11T09:54:34.199Z,1009.9
2018-04-11T09:55:35.847Z,1009.9
2018-04-11T09:56:37.476Z,1009.9
2018-04-11T09:57:39.076Z,1009.9
2018-04-11T09:58:40.695Z,1009.9
2018-04-11T09:59:42.302Z,1010.0
2018-04-11T10:00:43.905Z,1010.0
2018-04-11T10:01:45.508Z,1010.0
2018-04-11T10:02:47.100Z,1010.1
2018-04-11T10:03:48.740Z,1010.1
2018-04-11T10:04:50.361Z,1010.0
2018-04-11T10:05:51.962Z,1010.0
2018-04-11T10:06:53.609Z,1010.0
2018-04-11T10:07:55.189Z,1010.0
2018-04-11T10:08:56.795Z,1010.0
2018-04-11T10:09:58.413Z,1010.0
2018-04-11T10:11:00.035Z,1010.0
2018-04-11T10:12:01.671Z,1010.0
2018-04-11T10:13:03.283Z,1010.0
2018-04-11T10:14:04.853Z,1010.0
2018-04-11T10:15:06.431Z,1010.0
2018-04-11T10:16:08.031Z,1010.0
2018-04-11T10:17:09.628Z,1010.0
2018-04-11T10:18:11.234Z,1010.0
2018-04-11T10:19:12.877Z,1010.0
2018-04-11T10:20:14.487Z,1010.0
2018-04-11T10:21:16.076Z,1010.0
2018-04-11T10:22:17.669Z,1010.0
2018-04-11T10:23:19.281Z,1010.0
2018-04-11T10:24:20.878Z,1010.0
2018-04-11T10:25:22.518Z,1010.0
2018-04-11T10:26:24.152Z,1010.0
2018-04-11T10:27:25.738Z,1010.0
2018-04-11T10:28:27.317Z,1010.0
2018-04-11T10:29:28.931Z,1010.0
2018-04-11T10:30:30.544Z,1010.0
2018-04-11T10:31:32.141Z,1010.0
2018-04-11T10:32:33.730Z,1010.0
2018-04-11T10:33:35.328Z,1010.0
2018-04-11T10:34:36.916Z,1010.0
2018-04-11T10:35:39.778Z,1010.0
2018-04-11T10:36:41.462Z,1010.0
2018-04-11T10:37:43.057Z,1010.0
2018-04-11T10:38:44.697Z,1010.0
2018-04-11T10:39:46.304Z,1010.0
2018-04-11T10:40:47.934Z,1009.9
2018-04-11T10:41:49.535Z,1010.0
2018-04-11T10:42:51.141Z,1010.0
2018-04-11T10:43:52.732Z,1010.0
2018-04-11T10:44:54.339Z,1010.0
2018-04-11T10:45:55.971Z,1010.0
2018-04-11T10:46:57.555Z,1010.0
2018-04-11T10:47:59.191Z,1010.0
2018-04-11T10:49:00.811Z,1010.0
2018-04-11T10:50:02.418Z,1010.0
2018-04-11T10:51:04.055Z,1010.0
2018-04-11T10:52:05.661Z,1010.0
2018-04-11T10:53:07.253Z,1010.0
2018-04-11T10:54:08.913Z,1010.0
2018-04-11T10:55:10.540Z,1010.0
2018-04-11T10:56:12.135Z,1010.0
2018-04-11T10:57:13.740Z,1010.0
2018-04-11T10:58:15.335Z,1010.0
2018-04-11T10:59:16.954Z,1010.0
2018-04-11T11:00:18.594Z,1010.0
2018-04-11T11:01:20.187Z,1010.0
2018-04-11T11:02:21.826Z,1010.0
2018-04-11T11:03:23.448Z,1010.0
2018-04-11T11:04:25.059Z,1010.0
2018-04-11T11:05:26.652Z,1010.0
2018-04-11T11:06:28.269Z,1010.0
2018-04-11T11:07:29.875Z,1010.0
2018-04-11T11:08:31.524Z,1010.0
2018-04-11T11:09:33.125Z,1010.0
2018-04-11T11:10:34.725Z,1010.0
2018-04-11T11:11:36.349Z,1010.0
2018-04-11T11:12:37.953Z,1009.9
2018-04-11T11:13:39.537Z,1010.0
2018-04-11T11:14:41.155Z,1010.0
2018-04-11T11:15:42.783Z,1009.9
2018-04-11T11:16:44.392Z,1009.9
2018-04-11T11:17:46.020Z,1009.9
2018-04-11T11:18:47.625Z,1009.9
2018-04-11T11:19:49.248Z,1009.9
2018-04-11T11:20:50.891Z,1009.8
2018-04-11T11:21:52.518Z,1009.8
2018-04-11T11:22:54.121Z,1009.8
2018-04-11T11:23:55.723Z,1009.8
2018-04-11T11:24:57.328Z,1009.8
2018-04-11T11:25:58.914Z,1009.8
2018-04-11T11:27:00.521Z,1009.8
2018-04-11T11:28:02.107Z,1009.8
2018-04-11T11:29:03.707Z,1009.8
2018-04-11T11:30:05.326Z,1009.8
2018-04-11T11:31:06.930Z,1009.8
2018-04-11T11:32:08.541Z,1009.8
2018-04-11T11:33:10.179Z,1009.8
2018-04-11T11:34:11.775Z,1009.8
2018-04-11T11:35:13.384Z,1009.8
2018-04-11T11:36:15.014Z,1009.9
2018-04-11T11:37:16.619Z,1009.8
2018-04-11T11:38:18.234Z,1009.9
2018-04-11T11:39:19.841Z,1009.9
2018-04-11T11:40:21.446Z,1009.9
2018-04-11T11:41:23.063Z,1010.0
2018-04-11T11:42:24.664Z,1010.0
2018-04-11T11:43:26.258Z,1010.2
2018-04-11T11:44:27.909Z,1010.5
2018-04-11T11:45:29.510Z,1010.5
2018-04-11T11:46:31.142Z,1010.1
2018-04-11T11:47:32.758Z,1009.9
2018-04-11T11:48:34.346Z,1009.9
2018-04-11T11:49:35.958Z,1010.0
2018-04-11T11:50:37.565Z,1009.9
2018-04-11T11:51:39.161Z,1009.9
2018-04-11T11:52:40.771Z,1009.8
2018-04-11T11:53:42.401Z,1010.0
2018-04-11T11:54:44.001Z,1010.6
2018-04-11T11:55:45.618Z,1010.8
2018-04-11T11:56:47.220Z,1009.8
2018-04-11T11:57:48.849Z,1010.7
2018-04-11T11:58:50.458Z,1009.8
2018-04-11T11:59:52.068Z,1009.8
2018-04-11T12:00:53.741Z,1009.7
2018-04-11T12:01:55.413Z,1009.8
2018-04-11T12:02:57.036Z,1009.8
2018-04-11T12:03:58.645Z,1009.9
2018-04-11T12:05:00.334Z,1009.9
2018-04-11T12:06:01.928Z,1010.3
2018-04-11T12:07:03.532Z,1010.7
2018-04-11T12:08:05.140Z,1010.2
2018-04-11T12:09:06.741Z,1010.1
2018-04-11T12:10:08.326Z,1010.7
2018-04-11T12:11:09.938Z,1010.9
2018-04-11T12:12:11.536Z,1010.9
2018-04-11T12:13:13.151Z,1010.8
2018-04-11T12:14:14.760Z,1010.2
2018-04-11T12:15:16.407Z,1010.8
2018-04-11T12:16:18.028Z,1010.3
2018-04-11T12:17:19.657Z,1010.8
2018-04-11T12:18:21.249Z,1010.3
2018-04-11T12:19:22.906Z,1010.3
2018-04-11T12:20:24.512Z,1009.9
2018-04-11T12:21:26.164Z,1009.9
2018-04-11T12:22:27.757Z,1009.9
2018-04-11T12:23:29.375Z,1010.0
2018-04-11T12:24:30.967Z,1010.1
2018-04-11T12:25:32.579Z,1009.9
2018-04-11T12:26:34.183Z,1009.9
2018-04-11T12:27:35.801Z,1010.0
2018-04-11T12:28:37.419Z,1010.0
2018-04-11T12:29:39.030Z,1009.9
2018-04-11T12:30:40.645Z,1009.9
2018-04-11T12:31:42.275Z,1010.0
2018-04-11T12:32:43.888Z,1010.0
2018-04-11T12:33:45.492Z,1009.9
2018-04-11T12:34:47.095Z,1010.1
2018-04-11T12:35:48.698Z,1010.0
2018-04-11T12:36:50.337Z,1010.0
2018-04-11T12:37:51.969Z,1010.1
2018-04-11T12:38:53.578Z,1009.9
2018-04-11T12:39:55.175Z,1009.9
2018-04-11T12:40:56.786Z,1009.9
2018-04-11T12:41:58.404Z,1009.9
2018-04-11T12:43:00.013Z,1010.1
2018-04-11T12:44:01.606Z,1010.2
2018-04-11T12:45:03.225Z,1010.0
2018-04-11T12:46:04.841Z,1010.0
2018-04-11T12:47:06.467Z,1009.9
2018-04-11T12:48:08.122Z,1009.8